Lakeview, Nevada
Current Conditions -  °F | °C
As of 1:55 AM on Saturday 29 Nov 2014 (Local Time) from KCXP Reporting Station
Light Rain Light Rain  
Wind Chill: 37°   Ceiling: 6000
Heat Index: 45°   Visibility: 10mi
Dew Point: 25°   Wind: 18mph
Humidity: 46%   Direction: 240°WSW
Pressure: 29.86"   Gusts: 26mph
Location:  39.1386°N, 119.659°W
Report Text: KCXP 290955Z AUTO 24016G23KT 10SM -RA SCT029 SCT037 BKN060 07/M04 A2986 RMK AO2
Loading
Personal Weather Stations






























Interactive Weather Map New forecast layout! Learn more

10-Day Weather Forecast

Advertisements
Track Severe Weather on mobile